Aviation Digital Data Service (ADDS)

Output produced by TAFs form (1128 UTC 19 January 2018)
found at http://www.aviationweather.gov/adds/tafs/
 
ROIG 191100Z 04019KT 9999 FEW011 BKN021 BKN050 20/19 Q1017
TAF ROIG 190517Z 1906/2012 34005KT 9999 FEW008 BKN020 
     TEMPO 1906/1909 4000 SHRA FEW005 BKN008 
     TEMPO 1909/1915 FEW005 BKN008 
     BECMG 1910/1912 03015KT 
     TEMPO 1915/1918 4000 SHRA FEW005 BKN008